createdAt,value
2018-01-20T00:01:41.366Z,12.50
2018-01-20T00:04:09.522Z,12.50
2018-01-20T00:06:37.689Z,8.30
2018-01-20T00:09:05.869Z,5.63
2018-01-20T00:11:51.898Z,5.83
2018-01-20T00:14:20.055Z,6.00
2018-01-20T00:16:48.214Z,5.70
2018-01-20T00:19:16.375Z,5.15
2018-01-20T00:21:44.554Z,4.53
2018-01-20T00:24:12.714Z,4.70
2018-01-20T00:26:40.863Z,4.50
2018-01-20T00:29:09.803Z,4.60
2018-01-20T00:31:37.975Z,5.00
2018-01-20T00:34:06.144Z,5.10
2018-01-20T00:36:34.323Z,4.60
2018-01-20T00:39:02.473Z,5.50
2018-01-20T00:41:30.638Z,5.70
2018-01-20T00:43:59.565Z,4.73
2018-01-20T00:46:27.722Z,5.40
2018-01-20T00:48:55.874Z,4.40
2018-01-20T00:51:24.049Z,5.10
2018-01-20T00:53:52.966Z,5.10
2018-01-20T00:56:21.158Z,5.40
2018-01-20T00:58:49.313Z,5.00
2018-01-20T01:01:17.473Z,5.27
2018-01-20T01:03:45.634Z,5.15
2018-01-20T01:06:14.572Z,5.23
2018-01-20T01:08:42.769Z,4.45
2018-01-20T01:11:10.973Z,6.43
2018-01-20T01:13:39.902Z,5.10
2018-01-20T01:16:08.070Z,4.33
2018-01-20T01:18:36.229Z,4.90
2018-01-20T01:21:05.166Z,4.97
2018-01-20T01:23:33.329Z,5.17
2018-01-20T01:26:01.500Z,5.10
2018-01-20T01:28:29.702Z,4.27
2018-01-20T01:30:57.866Z,4.37
2018-01-20T01:33:26.047Z,4.13
2018-01-20T01:35:54.235Z,3.95
2018-01-20T01:38:22.421Z,4.03
2018-01-20T01:40:50.589Z,4.50
2018-01-20T01:43:18.758Z,4.23
2018-01-20T01:45:46.936Z,4.40
2018-01-20T01:48:15.112Z,4.53
2018-01-20T01:50:43.293Z,3.92
2018-01-20T01:53:11.465Z,4.03
2018-01-20T01:55:39.645Z,4.20
2018-01-20T01:58:08.597Z,5.05
2018-01-20T02:00:36.773Z,5.10
2018-01-20T02:03:04.974Z,6.60
2018-01-20T02:05:33.150Z,10.40
2018-01-20T02:08:01.325Z,7.00
2018-01-20T02:10:29.505Z,5.97
2018-01-20T02:12:57.677Z,5.10
2018-01-20T02:15:25.854Z,4.33
2018-01-20T02:17:54.030Z,6.00
2018-01-20T02:20:22.207Z,11.93
2018-01-20T02:22:51.181Z,9.30
2018-01-20T02:25:19.354Z,13.50
2018-01-20T02:27:47.553Z,9.65
2018-01-20T02:30:16.494Z,7.15
2018-01-20T02:32:44.693Z,7.17
2018-01-20T02:35:12.866Z,6.85
2018-01-20T02:37:41.042Z,6.33
2018-01-20T02:40:09.210Z,5.80
2018-01-20T02:42:37.414Z,4.73
2018-01-20T02:45:05.591Z,4.57
2018-01-20T02:47:34.537Z,5.13
2018-01-20T02:50:02.710Z,4.60
2018-01-20T02:52:30.884Z,4.70
2018-01-20T02:54:59.057Z,5.87
2018-01-20T02:57:27.233Z,6.13
2018-01-20T02:59:55.425Z,5.50
2018-01-20T03:02:23.633Z,5.00
2018-01-20T03:04:51.860Z,4.73
2018-01-20T03:07:20.047Z,6.70
2018-01-20T03:09:48.230Z,6.75
2018-01-20T03:12:16.397Z,6.87
2018-01-20T03:14:44.614Z,6.00
2018-01-20T03:17:13.569Z,6.72
2018-01-20T03:19:41.748Z,7.45
2018-01-20T03:22:09.913Z,5.43
2018-01-20T03:24:38.082Z,4.65
2018-01-20T03:27:06.265Z,5.12
2018-01-20T03:29:34.433Z,4.97
2018-01-20T03:32:03.369Z,5.37
2018-01-20T03:34:32.302Z,5.57
2018-01-20T03:37:00.482Z,5.22
2018-01-20T03:39:28.656Z,5.18
2018-01-20T03:41:56.817Z,4.55
2018-01-20T03:44:24.997Z,5.25
2018-01-20T03:46:53.165Z,5.03
2018-01-20T03:49:21.332Z,4.20
2018-01-20T03:51:49.503Z,5.03
2018-01-20T03:54:17.670Z,5.50
2018-01-20T03:56:46.592Z,6.20
2018-01-20T03:59:14.765Z,5.75
2018-01-20T04:01:42.920Z,4.57
2018-01-20T04:04:11.097Z,5.10
2018-01-20T04:06:39.281Z,4.63
2018-01-20T04:09:07.441Z,4.30
2018-01-20T04:11:36.358Z,4.43
2018-01-20T04:14:04.543Z,4.30
2018-01-20T04:16:32.716Z,4.30
2018-01-20T04:19:00.881Z,3.73
2018-01-20T04:21:29.032Z,3.70
2018-01-20T04:23:57.211Z,4.22
2018-01-20T04:26:25.372Z,3.60
2018-01-20T04:28:54.296Z,3.85
2018-01-20T04:31:22.451Z,3.93
2018-01-20T04:33:50.618Z,3.90
2018-01-20T04:36:19.574Z,4.10
2018-01-20T04:38:47.762Z,3.70
2018-01-20T04:41:15.958Z,4.60
2018-01-20T04:43:44.121Z,3.90
2018-01-20T04:46:13.063Z,4.43
2018-01-20T04:48:41.252Z,3.90
2018-01-20T04:51:09.413Z,4.43
2018-01-20T04:53:37.578Z,4.17
2018-01-20T04:56:05.747Z,4.10
2018-01-20T04:58:33.925Z,7.60
2018-01-20T05:01:02.113Z,8.90
2018-01-20T05:03:30.308Z,11.27
2018-01-20T05:05:58.484Z,10.98
2018-01-20T05:08:26.689Z,10.07
2018-01-20T05:10:55.631Z,11.43
2018-01-20T05:13:23.807Z,11.23
2018-01-20T05:15:51.981Z,11.88
2018-01-20T05:18:20.188Z,13.32
2018-01-20T05:20:48.369Z,10.30
2018-01-20T05:23:16.546Z,11.93
2018-01-20T05:25:44.723Z,10.90
2018-01-20T05:28:13.681Z,11.90
2018-01-20T05:30:41.852Z,9.95
2018-01-20T05:33:10.030Z,10.33
2018-01-20T05:35:38.203Z,11.07
2018-01-20T05:38:06.405Z,10.13
2018-01-20T05:40:34.601Z,11.00
2018-01-20T05:43:03.572Z,10.38
2018-01-20T05:45:31.778Z,12.37
2018-01-20T05:47:59.953Z,10.85
2018-01-20T05:50:28.133Z,11.52
2018-01-20T05:52:56.322Z,11.25
2018-01-20T05:55:24.501Z,10.90
2018-01-20T05:57:52.685Z,15.57
2018-01-20T06:00:20.900Z,13.32
2018-01-20T06:02:49.877Z,27.50
2018-01-20T06:05:18.070Z,21.75
2018-01-20T06:07:47.029Z,22.08
2018-01-20T06:10:15.207Z,26.85
2018-01-20T06:12:43.374Z,24.10
2018-01-20T06:15:11.545Z,20.85
2018-01-20T06:17:39.760Z,18.25
2018-01-20T06:20:08.763Z,28.77
2018-01-20T06:22:37.702Z,26.05
2018-01-20T06:25:05.881Z,18.55
2018-01-20T06:27:34.073Z,18.27
2018-01-20T06:30:02.258Z,17.65
2018-01-20T06:32:30.430Z,11.60
2018-01-20T06:34:58.604Z,13.73
2018-01-20T06:37:26.777Z,16.10
2018-01-20T06:39:54.999Z,11.70
2018-01-20T06:42:23.174Z,14.15
2018-01-20T06:44:51.346Z,11.75
2018-01-20T06:47:19.555Z,22.42
2018-01-20T06:49:47.744Z,14.38
2018-01-20T06:52:15.960Z,14.65
2018-01-20T06:54:44.173Z,11.32
2018-01-20T06:57:12.337Z,9.60
2018-01-20T06:59:40.518Z,9.60
2018-01-20T07:02:08.709Z,9.35
2018-01-20T07:04:36.903Z,9.48
2018-01-20T07:07:05.085Z,7.53
2018-01-20T07:09:33.293Z,7.12
2018-01-20T07:12:01.476Z,7.25
2018-01-20T07:14:29.651Z,7.15
2018-01-20T07:16:57.851Z,8.63
2018-01-20T07:19:26.038Z,7.62
2018-01-20T07:21:54.210Z,6.87
2018-01-20T07:24:22.381Z,7.00
2018-01-20T07:26:50.563Z,6.30
2018-01-20T07:29:18.730Z,6.70
2018-01-20T07:31:46.901Z,5.90
2018-01-20T07:34:15.082Z,6.47
2018-01-20T07:36:43.285Z,7.00
2018-01-20T07:39:11.481Z,6.70
2018-01-20T07:41:40.413Z,7.50
2018-01-20T07:44:08.597Z,7.00
2018-01-20T07:46:36.771Z,7.47
2018-01-20T07:49:04.949Z,7.18
2018-01-20T07:51:33.109Z,7.50
2018-01-20T07:54:01.277Z,6.60
2018-01-20T07:56:29.446Z,6.90
2018-01-20T07:58:57.650Z,7.57
2018-01-20T08:01:25.874Z,7.47
2018-01-20T08:03:54.805Z,8.20
2018-01-20T08:06:22.969Z,7.15
2018-01-20T08:08:51.140Z,7.03
2018-01-20T08:11:19.304Z,7.43
2018-01-20T08:13:47.457Z,6.87
2018-01-20T08:16:16.406Z,5.83
2018-01-20T08:18:44.574Z,7.80
2018-01-20T08:21:12.746Z,6.23
2018-01-20T08:23:40.902Z,6.90
2018-01-20T08:26:09.049Z,7.17
2018-01-20T08:28:37.973Z,6.73
2018-01-20T08:31:06.133Z,7.50
2018-01-20T08:33:34.323Z,7.40
2018-01-20T08:36:02.504Z,7.60
2018-01-20T08:38:30.677Z,8.50
2018-01-20T08:40:58.876Z,7.43
2018-01-20T08:43:27.040Z,10.00
2018-01-20T08:45:55.241Z,8.60
2018-01-20T08:48:23.989Z,9.23
2018-01-20T08:50:52.283Z,8.20
2018-01-20T08:53:20.458Z,8.27
2018-01-20T08:55:48.625Z,10.00
2018-01-20T08:58:17.549Z,10.47
2018-01-20T09:00:45.814Z,8.70
2018-01-20T09:03:14.034Z,9.60
2018-01-20T09:05:42.195Z,9.00
2018-01-20T09:08:11.137Z,7.60
2018-01-20T09:10:39.318Z,7.73
2018-01-20T09:13:07.525Z,7.63
2018-01-20T09:15:35.689Z,8.87
2018-01-20T09:18:04.171Z,10.20
2018-01-20T09:20:32.342Z,7.77
2018-01-20T09:23:00.518Z,9.17
2018-01-20T09:25:28.713Z,18.50
2018-01-20T09:27:57.683Z,18.77
2018-01-20T09:30:25.846Z,21.17
2018-01-20T09:32:54.026Z,21.60
2018-01-20T09:35:22.276Z,21.53
2018-01-20T09:37:50.446Z,22.17
2018-01-20T09:40:18.672Z,18.87
2018-01-20T09:42:47.632Z,20.10
2018-01-20T09:45:15.804Z,20.70
2018-01-20T09:47:44.002Z,18.57
2018-01-20T09:50:12.195Z,20.50
2018-01-20T09:52:41.129Z,18.20
2018-01-20T09:55:09.288Z,17.00
2018-01-20T09:57:37.653Z,15.47
2018-01-20T10:00:06.610Z,16.10
2018-01-20T10:02:34.852Z,17.10
2018-01-20T10:05:03.443Z,17.60
2018-01-20T10:07:31.607Z,17.57
2018-01-20T10:09:59.795Z,15.50
2018-01-20T10:12:28.430Z,14.10
2018-01-20T10:14:57.465Z,12.93
2018-01-20T10:17:25.642Z,13.17
2018-01-20T10:19:53.818Z,11.70
2018-01-20T10:22:22.091Z,12.03
2018-01-20T10:24:50.265Z,10.73
2018-01-20T10:27:18.441Z,12.00
2018-01-20T10:29:46.613Z,11.37
2018-01-20T10:32:14.800Z,11.37
2018-01-20T10:34:42.967Z,12.10
2018-01-20T10:37:11.130Z,12.03
2018-01-20T10:39:39.317Z,13.17
2018-01-20T10:42:07.490Z,13.50
2018-01-20T10:44:35.662Z,13.53
2018-01-20T10:47:03.961Z,11.73
2018-01-20T10:49:32.130Z,8.87
2018-01-20T10:52:00.399Z,9.20
2018-01-20T10:54:28.614Z,6.50
2018-01-20T10:56:56.765Z,5.97
2018-01-20T10:59:25.687Z,6.50
2018-01-20T11:01:54.624Z,6.93
2018-01-20T11:04:22.798Z,6.03
2018-01-20T11:06:50.982Z,7.10
2018-01-20T11:09:19.251Z,6.20
2018-01-20T11:11:47.430Z,6.50
2018-01-20T11:14:15.597Z,6.27
2018-01-20T11:16:43.766Z,7.00
2018-01-20T11:19:11.931Z,6.53
2018-01-20T11:21:40.121Z,6.50
2018-01-20T11:24:08.331Z,6.30
2018-01-20T11:26:36.498Z,5.60
2018-01-20T11:29:04.726Z,6.30
2018-01-20T11:31:32.930Z,5.77
2018-01-20T11:34:01.106Z,6.10
2018-01-20T11:36:29.269Z,5.77
2018-01-20T11:38:57.472Z,6.10
2018-01-20T11:41:25.645Z,6.50
2018-01-20T11:43:53.895Z,5.93
2018-01-20T11:46:22.066Z,4.97
2018-01-20T11:48:50.243Z,4.53
2018-01-20T11:51:18.418Z,6.17
2018-01-20T11:53:46.596Z,5.33
2018-01-20T11:56:14.755Z,5.17
2018-01-20T11:58:43.025Z,4.07
2018-01-20T12:01:11.197Z,3.47
2018-01-20T12:03:39.393Z,4.20
2018-01-20T12:06:07.616Z,3.30
2018-01-20T12:08:35.786Z,4.30
2018-01-20T12:11:03.962Z,4.00
2018-01-20T12:13:32.147Z,4.53
2018-01-20T12:16:00.323Z,4.07
2018-01-20T12:18:28.485Z,5.73
2018-01-20T12:20:56.664Z,5.70
2018-01-20T12:23:24.840Z,5.57
2018-01-20T12:25:53.033Z,5.83
2018-01-20T12:28:21.997Z,5.73
2018-01-20T12:30:50.174Z,7.20
2018-01-20T12:33:18.537Z,6.30
2018-01-20T12:35:46.722Z,5.73
2018-01-20T12:38:14.897Z,5.77
2018-01-20T12:40:43.117Z,6.67
2018-01-20T12:43:11.296Z,6.40
2018-01-20T12:45:39.534Z,6.70
2018-01-20T12:48:07.781Z,6.47
2018-01-20T12:50:35.994Z,5.87
2018-01-20T12:53:04.947Z,6.70
2018-01-20T12:55:33.108Z,8.33
2018-01-20T12:58:01.327Z,6.87
2018-01-20T13:00:29.517Z,7.27
2018-01-20T13:02:57.684Z,6.90
2018-01-20T13:05:25.913Z,7.90
2018-01-20T13:07:54.140Z,7.57
2018-01-20T13:10:23.090Z,7.23
2018-01-20T13:12:52.170Z,7.57
2018-01-20T13:15:20.349Z,8.30
2018-01-20T13:17:48.536Z,7.73
2018-01-20T13:20:17.494Z,7.30
2018-01-20T13:22:45.688Z,6.80
2018-01-20T13:25:13.860Z,6.50
2018-01-20T13:27:42.041Z,6.40
2018-01-20T13:30:10.241Z,7.93
2018-01-20T13:32:38.408Z,7.07
2018-01-20T13:35:06.575Z,9.53
2018-01-20T13:37:34.757Z,7.23
2018-01-20T13:40:02.909Z,7.73
2018-01-20T13:42:31.077Z,7.13
2018-01-20T13:44:59.298Z,7.90
2018-01-20T13:47:27.469Z,7.33
2018-01-20T13:49:55.652Z,7.50
2018-01-20T13:52:23.866Z,7.77
2018-01-20T13:54:52.063Z,7.60
2018-01-20T13:57:24.420Z,8.67
2018-01-20T13:59:52.588Z,7.60
2018-01-20T14:02:20.761Z,11.40
2018-01-20T14:04:48.962Z,9.90
2018-01-20T14:07:17.144Z,8.90
2018-01-20T14:09:45.353Z,12.03
2018-01-20T14:12:13.534Z,8.10
2018-01-20T14:14:41.703Z,9.40
2018-01-20T14:17:09.868Z,9.17
2018-01-20T14:19:38.049Z,9.07
2018-01-20T14:22:06.207Z,8.13
2018-01-20T14:24:35.147Z,8.03
2018-01-20T14:27:03.329Z,8.50
2018-01-20T14:29:31.489Z,8.63
2018-01-20T14:32:00.438Z,8.83
2018-01-20T14:34:28.669Z,7.73
2018-01-20T14:36:56.872Z,8.70
2018-01-20T14:39:25.119Z,9.90
2018-01-20T14:41:53.355Z,8.40
2018-01-20T14:44:21.573Z,9.07
2018-01-20T14:46:49.754Z,9.10
2018-01-20T14:49:17.947Z,7.80
2018-01-20T14:51:46.131Z,9.60
2018-01-20T14:54:14.301Z,9.67
2018-01-20T14:56:42.482Z,9.83
2018-01-20T14:59:10.654Z,9.60
2018-01-20T15:01:38.836Z,10.40
2018-01-20T15:04:07.016Z,9.63
2018-01-20T15:06:35.197Z,10.60
2018-01-20T15:09:03.444Z,10.97
2018-01-20T15:11:31.656Z,11.10
2018-01-20T15:13:59.821Z,11.90
2018-01-20T15:16:28.041Z,25.80
2018-01-20T15:18:56.241Z,24.30
2018-01-20T15:21:24.422Z,18.70
2018-01-20T15:23:52.610Z,15.93
2018-01-20T15:26:20.846Z,13.73
2018-01-20T15:28:49.049Z,11.70
2018-01-20T15:31:17.246Z,11.63
2018-01-20T15:33:45.436Z,12.23
2018-01-20T15:36:13.684Z,12.30
2018-01-20T15:38:41.923Z,11.60
2018-01-20T15:41:10.108Z,13.50
2018-01-20T15:43:38.282Z,12.77
2018-01-20T15:46:06.478Z,12.60
2018-01-20T15:48:34.702Z,12.60
2018-01-20T15:51:03.685Z,13.07
2018-01-20T15:53:32.632Z,10.60
2018-01-20T15:56:00.891Z,10.50
2018-01-20T15:58:29.104Z,11.57
2018-01-20T16:00:57.349Z,12.10
2018-01-20T16:03:25.581Z,12.93
2018-01-20T16:05:53.780Z,13.70
2018-01-20T16:08:22.049Z,14.87
2018-01-20T16:10:51.098Z,13.43
2018-01-20T16:13:19.329Z,13.50
2018-01-20T16:15:47.553Z,16.60
2018-01-20T16:18:16.515Z,18.00
2018-01-20T16:20:44.706Z,17.23
2018-01-20T16:23:12.973Z,16.13
2018-01-20T16:25:41.179Z,15.77
2018-01-20T16:28:10.171Z,12.10
2018-01-20T16:30:38.335Z,12.30
2018-01-20T16:33:06.515Z,14.60
2018-01-20T16:35:34.714Z,12.60
2018-01-20T16:38:02.946Z,14.87
2018-01-20T16:40:31.127Z,12.50
2018-01-20T16:42:59.313Z,13.33
2018-01-20T16:45:27.535Z,11.43
2018-01-20T16:47:56.473Z,12.47
2018-01-20T16:50:24.644Z,11.90
2018-01-20T16:52:52.837Z,11.47
2018-01-20T16:55:21.020Z,11.80
2018-01-20T16:57:49.286Z,11.13
2018-01-20T17:00:17.469Z,11.13
2018-01-20T17:02:45.767Z,12.90
2018-01-20T17:05:14.750Z,13.50
2018-01-20T17:07:44.018Z,14.00
2018-01-20T17:10:12.209Z,13.73
2018-01-20T17:12:40.509Z,10.73
2018-01-20T17:15:09.503Z,12.57
2018-01-20T17:17:37.727Z,11.93
2018-01-20T17:20:05.896Z,12.53
2018-01-20T17:22:34.126Z,10.70
2018-01-20T17:25:02.360Z,12.40
2018-01-20T17:27:30.563Z,14.53
2018-01-20T17:29:58.778Z,13.37
2018-01-20T17:32:27.036Z,13.50
2018-01-20T17:34:56.028Z,13.43
2018-01-20T17:37:25.062Z,12.53
2018-01-20T17:39:53.260Z,14.30
2018-01-20T17:42:21.525Z,19.10
2018-01-20T17:44:49.739Z,16.33
2018-01-20T17:47:17.922Z,17.67
2018-01-20T17:49:46.197Z,16.13
2018-01-20T17:52:14.383Z,16.30
2018-01-20T17:54:43.415Z,31.60
2018-01-20T17:57:11.623Z,22.90
2018-01-20T17:59:39.822Z,23.40
2018-01-20T18:02:08.805Z,21.20
2018-01-20T18:04:37.021Z,24.73
2018-01-20T18:07:06.094Z,22.67
2018-01-20T18:09:35.058Z,19.57
2018-01-20T18:12:03.248Z,16.57
2018-01-20T18:14:31.536Z,19.00
2018-01-20T18:17:00.495Z,15.57
2018-01-20T18:19:28.681Z,15.30
2018-01-20T18:21:56.942Z,14.30
2018-01-20T18:24:25.130Z,15.07
2018-01-20T18:26:53.331Z,13.40
2018-01-20T18:29:22.263Z,14.43
2018-01-20T18:31:50.466Z,14.13
2018-01-20T18:34:18.646Z,14.93
2018-01-20T18:36:46.883Z,12.93
2018-01-20T18:39:15.093Z,15.77
2018-01-20T18:41:43.266Z,16.10
2018-01-20T18:44:11.449Z,16.20
2018-01-20T18:46:39.683Z,15.77
2018-01-20T18:49:07.856Z,17.70
2018-01-20T18:51:37.315Z,16.13
2018-01-20T18:54:05.499Z,15.30
2018-01-20T18:56:34.493Z,17.33
2018-01-20T18:59:02.682Z,17.70
2018-01-20T19:01:31.650Z,18.70
2018-01-20T19:03:59.861Z,15.30
2018-01-20T19:06:28.070Z,18.90
2018-01-20T19:08:56.248Z,18.23
2018-01-20T19:11:24.537Z,17.33
2018-01-20T19:13:53.192Z,17.57
2018-01-20T19:16:21.430Z,18.90
2018-01-20T19:18:50.467Z,20.73
2018-01-20T19:21:18.664Z,17.30
2018-01-20T19:23:46.880Z,17.30
2018-01-20T19:26:15.835Z,18.00
2018-01-20T19:28:44.033Z,17.47
2018-01-20T19:31:12.233Z,18.30
2018-01-20T19:33:40.471Z,17.30
2018-01-20T19:36:08.753Z,15.90
2018-01-20T19:38:36.991Z,18.90
2018-01-20T19:41:05.197Z,18.37
2018-01-20T19:43:33.421Z,18.57
2018-01-20T19:46:01.678Z,19.77
2018-01-20T19:48:30.658Z,19.43
2018-01-20T19:50:59.637Z,18.03
2018-01-20T19:53:27.861Z,19.70
2018-01-20T19:56:01.002Z,19.87
2018-01-20T19:58:30.102Z,20.60
2018-01-20T20:00:58.579Z,16.83
2018-01-20T20:03:26.895Z,16.17
2018-01-20T20:05:55.190Z,16.50
2018-01-20T20:08:23.408Z,17.47
2018-01-20T20:10:52.075Z,17.40
2018-01-20T20:13:33.180Z,16.60
2018-01-20T20:16:04.112Z,17.47
2018-01-20T20:18:32.940Z,17.03
2018-01-20T20:21:05.954Z,17.17
2018-01-20T20:23:35.395Z,18.77
2018-01-20T20:26:10.255Z,16.93
2018-01-20T20:28:45.262Z,19.23
2018-01-20T20:31:14.231Z,21.33
2018-01-20T20:33:54.909Z,18.60
2018-01-20T20:36:24.996Z,18.13
2018-01-20T20:38:54.466Z,19.13
2018-01-20T20:41:24.441Z,17.97
2018-01-20T20:44:00.854Z,18.60
2018-01-20T20:46:29.748Z,18.83
2018-01-20T20:48:58.743Z,19.77
2018-01-20T20:51:27.929Z,18.97
2018-01-20T20:53:56.126Z,19.07
2018-01-20T20:56:24.335Z,18.63
2018-01-20T20:58:53.444Z,19.53
2018-01-20T21:01:21.648Z,20.70
2018-01-20T21:03:49.836Z,21.40
2018-01-20T21:06:19.651Z,19.83
2018-01-20T21:08:48.887Z,20.87
2018-01-20T21:11:17.645Z,21.60
2018-01-20T21:13:46.947Z,20.60
2018-01-20T21:16:15.898Z,22.93
2018-01-20T21:18:44.464Z,20.80
2018-01-20T21:21:13.467Z,19.93
2018-01-20T21:23:41.694Z,24.60
2018-01-20T21:26:10.613Z,19.67
2018-01-20T21:28:40.931Z,17.33
2018-01-20T21:31:09.098Z,16.33
2018-01-20T21:33:37.293Z,16.77
2018-01-20T21:36:05.471Z,17.60
2018-01-20T21:38:33.659Z,17.33
2018-01-20T21:41:01.859Z,18.90
2018-01-20T21:43:30.135Z,17.13
2018-01-20T21:45:58.319Z,16.00
2018-01-20T21:48:28.273Z,17.73
2018-01-20T21:50:56.519Z,17.70
2018-01-20T21:53:24.737Z,19.60
2018-01-20T21:55:52.931Z,21.00
2018-01-20T21:58:21.139Z,21.73
2018-01-20T22:00:50.087Z,21.20
2018-01-20T22:03:18.286Z,25.50
2018-01-20T22:05:46.459Z,26.20
2018-01-20T22:08:14.648Z,21.40
2018-01-20T22:10:42.830Z,21.87
2018-01-20T22:13:11.764Z,23.00
2018-01-20T22:15:39.993Z,21.17
2018-01-20T22:18:08.192Z,21.90
2018-01-20T22:20:37.153Z,21.40
2018-01-20T22:23:05.320Z,19.17
2018-01-20T22:25:33.484Z,20.50
2018-01-20T22:28:01.662Z,19.80
2018-01-20T22:30:29.826Z,19.93
2018-01-20T22:32:58.034Z,26.40
2018-01-20T22:35:26.990Z,26.17
2018-01-20T22:37:55.187Z,32.57
2018-01-20T22:40:23.369Z,37.20
2018-01-20T22:42:51.557Z,24.40
2018-01-20T22:45:20.571Z,21.13
2018-01-20T22:47:48.741Z,21.60
2018-01-20T22:50:16.916Z,23.90
2018-01-20T22:52:45.105Z,21.40
2018-01-20T22:55:13.292Z,21.33
2018-01-20T22:57:41.457Z,19.67
2018-01-20T23:00:09.706Z,19.33
2018-01-20T23:02:38.637Z,18.77
2018-01-20T23:05:06.826Z,19.07
2018-01-20T23:07:35.017Z,18.70
2018-01-20T23:10:03.200Z,19.27
2018-01-20T23:12:31.433Z,18.87
2018-01-20T23:14:59.606Z,19.47
2018-01-20T23:17:27.813Z,21.53
2018-01-20T23:19:55.999Z,20.33
2018-01-20T23:22:24.222Z,19.53
2018-01-20T23:24:52.407Z,18.77
2018-01-20T23:27:20.590Z,20.30
2018-01-20T23:29:48.770Z,19.97
2018-01-20T23:32:16.944Z,20.07
2018-01-20T23:34:45.114Z,19.70
2018-01-20T23:37:13.294Z,20.70
2018-01-20T23:39:42.226Z,20.67
2018-01-20T23:42:11.180Z,19.00
2018-01-20T23:44:39.370Z,17.43
2018-01-20T23:47:08.319Z,15.83
2018-01-20T23:49:36.494Z,17.00
2018-01-20T23:52:04.692Z,15.43
2018-01-20T23:54:32.915Z,15.60
2018-01-20T23:57:01.877Z,15.10
2018-01-20T23:59:30.104Z,15.00
